Date,TemperatureHighF,TemperatureAvgF,TemperatureLowF,DewpointHighF,DewpointAvgF,DewpointLowF,HumidityHigh,HumidityAvg,HumidityLow,PressureMaxIn,PressureMinIn,WindSpeedMaxMPH,WindSpeedAvgMPH,GustSpeedMaxMPH,PrecipitationSumIn
2013-3-1,41.3,37.1,34.3,34.0,31.2,28.0,88,79,66,30.04,29.99,3,0,6,0.03
2013-3-2,37.9,33.5,29.7,36.0,29.0,19.0,95,83,65,30.12,29.98,2,0,8,0.14
2013-3-3,35.9,30.0,24.7,23.0,18.7,16.0,79,64,48,30.16,30.10,4,0,6,0.01
2013-3-4,48.6,36.0,20.8,25.0,20.7,16.0,91,58,28,30.26,30.04,4,0,5,0.00
2013-3-5,47.0,39.4,33.4,47.0,35.7,23.0,99,87,53,30.08,29.67,7,0,13,1.44
2013-3-6,33.8,32.0,29.7,30.0,27.8,24.0,90,84,79,30.32,29.90,2,0,12,0.03
2013-3-7,36.9,34.0,31.8,30.0,28.1,26.0,89,79,70,30.41,30.28,2,0,5,0.00
2013-3-8,50.1,38.8,27.3,30.0,26.4,24.0,87,63,40,30.47,30.34,7,1,10,0.01
2013-3-9,61.6,46.7,30.4,36.0,30.6,26.0,85,57,31,30.36,30.20,3,0,7,0.00
2013-3-10,69.8,56.7,42.3,40.0,34.7,28.0,78,48,26,30.20,30.00,7,0,11,0.00
2013-3-11,64.5,57.1,43.9,53.0,47.0,35.0,96,72,38,29.99,29.76,10,1,17,0.73
2013-3-12,51.3,44.0,36.9,42.0,34.9,29.0,94,73,51,30.14,29.89,3,0,8,0.01
2013-3-13,46.0,38.9,32.8,31.0,24.6,16.0,79,58,41,30.37,30.11,2,0,16,0.00
2013-3-14,43.8,36.4,25.8,25.0,18.8,16.0,70,50,36,30.46,30.29,3,0,7,0.00
2013-3-15,66.3,49.6,32.4,44.0,35.1,25.0,90,60,40,30.32,29.92,6,1,10,0.00
2013-3-16,74.6,65.4,57.0,50.0,46.0,42.0,57,50,40,29.92,29.77,7,1,17,0.00
2013-3-17,71.8,63.7,55.1,53.0,48.0,44.0,75,57,44,29.95,29.82,4,0,12,0.00
2013-3-18,64.0,55.3,50.1,55.0,49.9,45.0,98,83,60,29.89,29.77,8,0,12,0.82
2013-3-19,59.0,48.3,35.6,52.0,31.9,14.0,98,60,22,30.16,29.86,5,1,10,0.04
2013-3-20,55.0,44.2,32.8,32.0,19.7,14.0,73,40,23,30.17,29.91,12,1,13,0.00
2013-3-21,41.5,32.6,23.2,22.0,13.3,9.0,63,46,32,30.08,29.99,4,0,8,0.00
2013-3-22,45.8,36.0,26.0,26.0,19.0,15.0,66,51,36,30.14,30.05,2,0,5,0.00
2013-3-23,53.3,44.5,38.2,43.0,35.9,25.0,91,72,54,30.08,29.80,7,1,7,0.02
2013-3-24,54.8,47.8,40.2,52.0,45.5,34.0,98,92,76,29.83,29.38,3,0,12,0.73
2013-3-25,39.9,34.6,32.1,35.0,29.1,26.0,90,80,70,30.07,29.63,6,1,18,0.07
2013-3-26,41.3,34.9,30.9,32.0,27.9,26.0,89,76,57,30.34,30.07,3,0,8,0.02
2013-3-27,48.8,39.4,31.0,30.0,26.1,22.0,84,62,37,30.39,30.30,3,0,7,0.00
2013-3-28,56.0,42.4,27.6,31.0,23.1,16.0,90,52,25,30.41,30.28,4,0,6,0.00
2013-3-29,47.7,40.6,31.9,41.0,32.3,18.0,95,74,40,30.40,30.28,2,0,5,0.20
2013-3-30,60.1,49.7,41.3,47.0,44.2,41.0,98,83,59,30.28,30.03,3,0,6,0.21
2013-3-31,61.5,54.7,50.4,57.0,52.6,47.0,99,93,74,30.03,29.86,12,0,12,0.79